Login
Access
Login with your mtb-forum.it nickname and password.


You do not have an account? Sign up here for free

mik74

Last training unit 30/06/2018
1
Followers
22 517 Km
itineraries
251 728 m
of total vertical gain
976
hours of riding
23.41 Km/h
average speed
134
average HR


30/06/2018 Show to everybody 30-06roa_dato_tutto_finio_l_omo_ 133.14 Km 1396 m 05:31:07 24.13 Km\h Giant Tcr Advanced
28/06/2018 Show to everybody 28-06un_oretta_sperando_di_non_prendere_acqua 25.43 Km 326 m 01:02:07 24.57 Km\h Giant Tcr Advanced
26/06/2018 Show to everybody 26-06giretto_fara_muro_salcedo 29.23 Km 508 m 01:14:15 23.62 Km\h Giant Tcr Advanced
23/06/2018 Show to everybody 23-06enego_col_fresco_ma_senza_el_socio_ 107.12 Km 1513 m 04:30:59 23.72 Km\h Giant Tcr Advanced
20/06/2018 Show to everybody 20-06mucio_calor_ma_stasera_girano_ 36.24 Km 426 m 01:26:50 25.04 Km\h Giant Tcr Advanced
19/06/2018 Show to everybody 19-06fontanelle_pian_mooolto_pian_ 35.02 Km 699 m 01:43:00 20.4 Km\h Giant Tcr Advanced
18/06/2018 Show to everybody 18-06inizio_test_sella_ 29.02 Km 306 m 01:14:21 23.42 Km\h Giant Tcr Advanced
16/06/2018 Show to everybody 16-07combai 128.82 Km 1361 m 05:12:59 24.69 Km\h Giant Tcr Advanced
13/06/2018 Show to everybody 13-06parte_due 19.43 Km 85 m 00:40:50 28.55 Km\h Giant Tcr Advanced
13/06/2018 Show to everybody 13-06relax_parte_uno_ 64.51 Km 389 m 02:08:15 30.18 Km\h Giant Tcr Advanced
12/06/2018 Show to everybody Allenamento 12-06-2018 alle 04:48:00 80.57 Km 1277 m 03:42:02 21.77 Km\h Giant Tcr Advanced
11/06/2018 Show to everybody Allenamento 11-06-2018 alle 12:22:07 59.38 Km 544 m 02:16:09 26.17 Km\h Giant Tcr Advanced
09/06/2018 Show to everybody 09-06foza 87.62 Km 1326 m 03:49:38 22.89 Km\h Giant Tcr Advanced
07/06/2018 Show to everybody Allenamento 07-06-2018 alle 07:00:30 42.04 Km 476 m 01:46:15 23.74 Km\h Giant Tcr Advanced
05/06/2018 Show to everybody 05-06temporale 32.45 Km 580 m 01:24:32 23.03 Km\h Giant Tcr Advanced
02/06/2018 Show to everybody 02-06mtb_covolo_e_altro 55.42 Km 1507 m 03:52:56 14.28 Km\h Torpado Ribot N
31/05/2018 Show to everybody 31-05mortisa_fara_val_zaccona_san_giorgio_finio_l_omo 37.21 Km 607 m 01:35:56 23.27 Km\h Giant Tcr Advanced
28/05/2018 Show to everybody 28-05giretto_classico_ 31.69 Km 348 m 01:18:29 24.22 Km\h Giant Tcr Advanced
26/05/2018 Show to everybody 26-05rotzo_in_compagnia 96.34 Km 1450 m 04:08:23 23.27 Km\h Giant Tcr Advanced
24/05/2018 Show to everybody 24-05cavecia_da_zugliano_ma_che_ideee_strambe_ 36.9 Km 437 m 01:32:21 23.97 Km\h Giant Tcr Advanced
23/05/2018 Show to everybody 23-05relax_brusa_panza 39.1 Km 182 m 01:28:45 26.43 Km\h Giant Tcr Advanced
21/05/2018 Show to everybody 21-05girino_stanchino_finch_c_sole_ 31.99 Km 436 m 01:21:01 23.69 Km\h Giant Tcr Advanced
19/05/2018 Show to everybody 19-05giro_tutto_nuovo_da_mappa_con_sterrato_up_down_laronda2_ 107.3 Km 1303 m 04:43:49 22.68 Km\h Giant Tcr Advanced
17/05/2018 Show to everybody 17-05sempre_pi_fresco_ 31.33 Km 475 m 01:23:12 22.6 Km\h Giant Tcr Advanced
14/05/2018 Show to everybody 14-05visto_che_non_piove_e_famolo_duro_ 24.78 Km 530 m 01:10:53 20.97 Km\h Giant Tcr Advanced
12/05/2018 Show to everybody 12-05montello_gran_giornata_ 122.79 Km 1032 m 04:43:48 25.96 Km\h Giant Tcr Advanced
10/05/2018 Show to everybody 10-05baagnato_anca_stasera_ 33.93 Km 405 m 01:24:47 24.01 Km\h Visual
07/05/2018 Show to everybody 07-05salcedo_scoperto_nuova_salita_ 30.04 Km 537 m 01:18:49 22.87 Km\h Visual
05/05/2018 Show to everybody 05-05tempo_permettendo 86.56 Km 715 m 03:31:56 24.51 Km\h Visual
01/05/2018 Show to everybody 01-05mtb_concoedintorni 48.49 Km 1273 m 03:20:19 14.52 Km\h Torpado Ribot N
28/04/2018 Show to everybody zovo_xon 100.99 Km 1188 m 04:13:57 23.86 Km\h Giant Tcr Advanced
25/04/2018 Show to everybody giro_up_e_down_tanto_cardio_tanto_stanco_ 61.47 Km 1212 m 03:03:54 20.06 Km\h Giant Tcr Advanced
23/04/2018 Show to everybody giro_pre_festa_ 31.71 Km 360 m 01:17:42 24.49 Km\h Giant Tcr Advanced
21/04/2018 Show to everybody col_del_gallo_modalit_ciuccia_ruote_ 96.73 Km 926 m 03:50:10 25.22 Km\h Giant Tcr Advanced
19/04/2018 Show to everybody giro_up_up_e_pianura 38.12 Km 387 m 01:33:25 24.48 Km\h Giant Tcr Advanced
17/04/2018 Show to everybody giro_in_piana_traffico_ 42.62 Km 161 m 01:33:46 27.27 Km\h Giant Tcr Advanced
14/04/2018 Show to everybody 14-04laronda 101.5 Km 1428 m 05:05:03 19.96 Km\h Torpado Ribot N
12/04/2018 Show to everybody 12-04frullata_per_ronda 29.89 Km 220 m 01:08:19 26.25 Km\h Giant Tcr Advanced
07/04/2018 Show to everybody torreselle_up_down 94.1 Km 1082 m 04:02:04 23.33 Km\h Giant Tcr Advanced
05/04/2018 Show to everybody 05-04classico_serale_ma_che_fatica_ 31.65 Km 364 m 01:18:26 24.21 Km\h Giant Tcr Advanced
02/04/2018 Show to everybody 02-04mtb_muri_ruotenuove 43.73 Km 906 m 02:30:45 17.41 Km\h Torpado Ribot N
28/03/2018 Show to everybody freschino_gambe_di_m_male_le_ciapet_meio_se_stavo_casa_ 36.98 Km 337 m 01:30:23 24.55 Km\h Giant Tcr Advanced
26/03/2018 Show to everybody 26_03mtb_nuovisentieri 32.03 Km 688 m 02:03:01 15.62 Km\h Torpado Ribot N
24/03/2018 Show to everybody valdobiadene_anca_masa_stanchino_e_freschino_ 103.8 Km 1050 m 04:16:12 24.31 Km\h Giant Tcr Advanced
10/03/2018 Show to everybody graziati_dal_meteo_ 79.44 Km 818 m 03:24:13 23.34 Km\h Giant Tcr Advanced
24/02/2018 Show to everybody 24-02monte_di_malo_con_vista_sulla_neve_ 81.1 Km 661 m 03:17:10 24.68 Km\h Giant Tcr Advanced
10/02/2018 Show to everybody 11-02asolando_con_i_compari 73.91 Km 676 m 03:05:01 23.97 Km\h Giant Tcr Advanced
28/01/2018 Show to everybody 28-01test_bolt_che_figata_ 59.33 Km 553 m 02:31:42 23.46 Km\h Giant Tcr Advanced
20/01/2018 Show to everybody 20-01piovene_cavecia 63.36 Km 734 m 02:54:18 21.81 Km\h Giant Tcr Advanced
26/12/2017 Show to everybody 26-12mtb_freschino 47.27 Km 528 m 02:39:24 17.79 Km\h Torpado Ribot N
23/12/2017 Show to everybody 23-12mtb_borso 52.02 Km 542 m 02:44:54 18.93 Km\h Torpado Ribot N
16/12/2017 Show to everybody 16-12mtb_trenino_arsiero 65.2 Km 542 m 03:05:43 21.07 Km\h Torpado Ribot N
08/12/2017 Show to everybody 09-12mtb_sent_ezzelini 72.18 Km 313 m 03:19:35 21.7 Km\h Torpado Ribot N
02/12/2017 Show to everybody 02-12mtb_breganze 55.78 Km 696 m 02:44:44 20.32 Km\h Torpado Ribot N
18/11/2017 Show to everybody 18-11mtb_brenta_valrovina 49.98 Km 643 m 03:01:25 16.53 Km\h Torpado Ribot N
11/11/2017 Show to everybody 11-11mtb_breganze 60.98 Km 944 m 03:16:23 18.63 Km\h Torpado Ribot N
04/11/2017 Show to everybody 04-11mtb_campocroce 57.78 Km 1123 m 03:31:57 16.36 Km\h Torpado Ribot N
01/11/2017 Show to everybody 01-11mtb_girodeimorti 42.84 Km 1053 m 02:57:30 14.48 Km\h Torpado Ribot N
28/10/2017 Show to everybody 28-10mtb_mussolente 59.45 Km 870 m 03:21:32 17.7 Km\h Torpado Ribot N
23/10/2017 Show to everybody 23-10mtbsugliargini 46.31 Km 124 m 02:14:06 20.72 Km\h Torpado Ribot N
21/10/2017 Show to everybody 21-10mtb_rubbio 41.54 Km 1072 m 02:45:15 15.08 Km\h Torpado Ribot N
14/10/2017 Show to everybody 14-10torreselle 75.51 Km 551 m 03:00:02 25.16 Km\h Giant Tcr Advanced
08/10/2017 Show to everybody 08-10mtb_colceresa 31.98 Km 846 m 02:06:48 15.13 Km\h Torpado Ribot N
07/10/2017 Show to everybody 07-10mtb_piazzola 73.26 Km 179 m 03:16:18 22.39 Km\h Torpado Ribot N
30/09/2017 Show to everybody 30-09asolo 65.16 Km 316 m 02:37:10 24.88 Km\h Giant Tcr Advanced
26/09/2017 Show to everybody ultimo_giro_nuovi_sentieri_x_francia_ 41.15 Km 545 m 01:51:37 22.12 Km\h Torpado Ribot N
20/09/2017 Show to everybody 20-09 32.06 Km 431 m 01:17:12 24.92 Km\h Giant Tcr Advanced
17/09/2017 Show to everybody 17-09malo 73.94 Km 639 m 02:50:53 25.96 Km\h Giant Tcr Advanced
13/09/2017 Show to everybody 13-09serale 32.06 Km 339 m 01:17:10 24.93 Km\h Giant Tcr Advanced
09/09/2017 Show to everybody Mostacin 79.99 Km 648 m 03:11:15 25.09 Km\h Giant Tcr Advanced
05/09/2017 Show to everybody 05-09par_vs_francia_ 29.92 Km 786 m 01:44:35 17.16 Km\h Torpado Ribot N
02/09/2017 Show to everybody 02-09camisin 44.29 Km 490 m 01:43:22 25.71 Km\h Giant Tcr Advanced
30/08/2017 Show to everybody 30-08giro_sfogo 30.2 Km 207 m 01:09:18 26.15 Km\h Giant Tcr Advanced
26/08/2017 Show to everybody 26-08galmarara_portule 40.38 Km 1147 m 02:51:32 14.12 Km\h Torpado Ribot N
16/08/2017 Show to everybody 16-08fontanelle 34.81 Km 679 m 01:40:11 20.85 Km\h Giant Tcr Advanced
14/08/2017 Show to everybody 14-08mtb_salcedo 39.68 Km 518 m 02:13:30 17.83 Km\h Torpado Ribot N
12/08/2017 Show to everybody 12-08torreselle 67.55 Km 527 m 02:41:32 25.09 Km\h Giant Tcr Advanced
08/08/2017 Show to everybody 08-08sensa_benzina 35.5 Km 261 m 01:24:15 25.28 Km\h Giant Tcr Advanced
05/08/2017 Show to everybody 05-08mtb_corno 43.01 Km 984 m 03:02:10 14.17 Km\h Torpado Ribot N
03/08/2017 Show to everybody 03-08valstagna 43.72 Km 139 m 01:38:15 26.7 Km\h Giant Tcr Advanced
01/08/2017 Show to everybody 01-08lusianacon roby 41.79 Km 724 m 01:54:40 21.87 Km\h Giant Tcr Advanced
29/07/2017 Show to everybody 29-07lusiana 60.67 Km 940 m 02:41:34 22.53 Km\h Giant Tcr Advanced
26/07/2017 Show to everybody 26-07giro_strano 34.63 Km 620 m 01:36:04 21.63 Km\h Giant Tcr Advanced
22/07/2017 Show to everybody 22-07grappa_da_semonzo 78.38 Km 1673 m 03:59:16 19.66 Km\h Giant Tcr Advanced
20/07/2017 Show to everybody 20-07salcedo_lusiana 34.02 Km 657 m 01:30:59 22.44 Km\h Giant Tcr Advanced
18/07/2017 Show to everybody 18-07lugoedintorni 32.92 Km 504 m 01:25:34 23.08 Km\h Giant Tcr Advanced
15/07/2017 Show to everybody 15-07rubbio_col_d`astiago_montagna_nova 36.44 Km 1129 m 03:00:00 12.15 Km\h Torpado Ribot N
12/07/2017 Show to everybody 12-07salcedo_lusiana_conco 45.21 Km 797 m 01:56:35 23.27 Km\h Giant Tcr Advanced
10/07/2017 Show to everybody 10-07valstagna 43.22 Km 146 m 01:33:50 27.64 Km\h Giant Tcr Advanced
08/07/2017 Show to everybody 08-07rotzo 98.16 Km 1335 m 03:59:43 24.57 Km\h Giant Tcr Advanced
06/07/2017 Show to everybody 06-07mortisa_lusiana 45.7 Km 723 m 01:52:41 24.34 Km\h Giant Tcr Advanced
04/07/2017 Show to everybody 04-07fontanelle(a_tutta) 36.15 Km 673 m 01:35:30 22.71 Km\h Giant Tcr Advanced
01/07/2017 Show to everybody 01-07combai 109.55 Km 972 m 04:07:18 26.58 Km\h Giant Tcr Advanced
27/06/2017 Show to everybody 27-06domani piove 31.52 Km 526 m 01:20:56 23.37 Km\h Giant Tcr Advanced
26/06/2017 Show to everybody 26-06salcedo2x(con muro 16%) 32.92 Km 590 m 01:28:10 22.4 Km\h Giant Tcr Advanced
22/06/2017 Show to everybody 22-06fedaia_sella_gardena_campolongo 91.08 Km 2479 m 05:03:04 18.03 Km\h Giant Tcr Advanced
19/06/2017 Show to everybody 19-06relax 29.33 Km 169 m 01:07:50 25.94 Km\h Giant Tcr Advanced
17/06/2017 Show to everybody 17-06enego_abomba 111 Km 1400 m 04:29:11 24.74 Km\h Giant Tcr Advanced
15/06/2017 Show to everybody 15-06girin_giretto!! 34.65 Km 501 m 01:24:20 24.65 Km\h Giant Tcr Advanced
13/06/2017 Show to everybody 13-06fontanelle_che _fatica! 34.05 Km 674 m 01:34:32 21.61 Km\h Giant Tcr Advanced
10/06/2017 Show to everybody 10-06tantosonno+gambedure+pocavoia=rotzo 91.96 Km 1363 m 03:43:51 24.65 Km\h Giant Tcr Advanced
08/06/2017 Show to everybody 08-06pianuraaa 43.38 Km 169 m 01:32:13 28.22 Km\h Giant Tcr Advanced
06/06/2017 Show to everybody 06-06piove! 22.36 Km 347 m 00:56:48 23.62 Km\h Giant Tcr Advanced
04/06/2017 Show to everybody 04-06giretto_domenicale 48.39 Km 1023 m 02:17:55 21.05 Km\h Giant Tcr Advanced
02/06/2017 Show to everybody 02-06mtb con francia 77.12 Km 1648 m 04:33:41 16.91 Km\h Torpado Ribot N
31/05/2017 Show to everybody 31-05relax...in_teoria 43.95 Km 176 m 01:39:00 26.64 Km\h Giant Tcr Advanced
29/05/2017 Show to everybody 29-05piano_piano 29.51 Km 385 m 01:16:15 23.22 Km\h Giant Tcr Advanced
27/05/2017 Show to everybody 27-05barcarola 90.25 Km 1094 m 03:40:04 24.61 Km\h Giant Tcr Advanced
24/05/2017 Show to everybody 24-05salcedo... 36.43 Km 551 m 01:41:38 21.51 Km\h Giant Tcr Advanced
22/05/2017 Show to everybody Mtb_BReganze 40.27 Km 695 m 02:07:04 19.01 Km\h Torpado Ribot N
20/05/2017 Show to everybody 20-05tretto_cavecia 88 Km 1334 m 03:53:47 22.58 Km\h Giant Tcr Advanced
18/05/2017 Show to everybody 18-05perso_nelle_ortiche 31.05 Km 655 m 01:44:30 17.83 Km\h Torpado Ribot N
16/05/2017 Show to everybody 16-05muri_a_breganze 36.15 Km 430 m 01:27:11 24.88 Km\h Giant Tcr Advanced
13/05/2017 Show to everybody 13-05coldelgallo 96.93 Km 818 m 03:49:39 25.32 Km\h Giant Tcr Advanced
10/05/2017 Show to everybody 10-05soledovesei 30.69 Km 405 m 01:17:27 23.78 Km\h Giant Tcr Advanced
06/05/2017 Show to everybody 06-05fara_camisinvecio_cavecia_salcedo_valpiglia 73.28 Km 1316 m 03:24:39 21.48 Km\h Giant Tcr Advanced
03/05/2017 Show to everybody 03-05sempre_fresco 33.19 Km 291 m 01:21:44 24.37 Km\h Giant Tcr Advanced
01/05/2017 Show to everybody 01-05mtb_breganze_dintorni 55.03 Km 758 m 02:58:28 18.5 Km\h Torpado Ribot N
29/04/2017 Show to everybody 29-04passo_xomo 94.04 Km 1347 m 04:02:57 23.22 Km\h Giant Tcr Advanced
22/04/2017 Show to everybody 22-04zovo_xon 97.03 Km 1135 m 03:54:01 24.88 Km\h Giant Tcr Advanced
20/04/2017 Show to everybody 20-04cavecia 41.18 Km 442 m 01:40:29 24.59 Km\h Giant Tcr Advanced
18/04/2017 Show to everybody Mtb_breganze 27.04 Km 528 m 01:28:09 18.41 Km\h Torpado Ribot N
15/04/2017 Show to everybody 15-04pioverà 44.78 Km 745 m 02:00:44 22.26 Km\h Giant Tcr Advanced
12/04/2017 Show to everybody 12-04girino_serale 28.05 Km 317 m 01:09:27 24.24 Km\h Giant Tcr Advanced
10/04/2017 Show to everybody 10-04breganze_fara 34.98 Km 523 m 01:53:29 18.5 Km\h Torpado Ribot N
08/04/2017 Show to everybody 08-04isolav_ignago_gambugliano_valli_torreselle 89.81 Km 986 m 03:35:25 25.01 Km\h Giant Tcr Advanced
06/04/2017 Show to everybody 06-04camisin 44.18 Km 325 m 01:39:25 26.67 Km\h Giant Tcr Advanced
03/04/2017 Show to everybody 03-04colceresa 18.94 Km 405 m 01:05:25 17.37 Km\h Torpado Ribot N
01/04/2017 Show to everybody 01-04valdobiadene 97.67 Km 869 m 03:43:21 26.24 Km\h Giant Tcr Advanced
30/03/2017 Show to everybody 30-03test_dtrr21 34.21 Km 445 m 01:24:01 24.43 Km\h Giant Tcr Advanced
28/03/2017 Show to everybody 28-03fara_lugo 33.81 Km 394 m 01:25:02 23.85 Km\h Giant Tcr Advanced
25/03/2017 Show to everybody 25-03presaxviii 95.18 Km 699 m 03:42:02 25.72 Km\h Giant Tcr Advanced
18/03/2017 Show to everybody 18_03fara_camisin_costovecio_caffe_cavecia 72.85 Km 1028 m 03:10:21 22.96 Km\h Giant Tcr Advanced
11/03/2017 Show to everybody 11-03castelli 80.47 Km 713 m 03:16:43 24.54 Km\h Giant Tcr Advanced
04/03/2017 Show to everybody 04-03mtb_quasi_piove 38.53 Km 77 m 01:50:02 21.01 Km\h Torpado Ribot N
26/02/2017 Show to everybody 26-02fara_camisin_cavecià 52 Km 662 m 02:14:56 23.12 Km\h Giant Tcr Advanced
18/02/2017 Show to everybody mtb 44.46 Km 1087 m 03:02:43 14.6 Km\h Torpado Ribot N
28/01/2017 Show to everybody 28-01mtb_40dc 34.17 Km 784 m 02:13:40 15.34 Km\h Torpado Ribot N
21/01/2017 Show to everybody 21-01mtb_vecchi_sentieri 31.77 Km 706 m 02:17:48 13.83 Km\h Torpado Ribot N
05/01/2017 Show to everybody 05-01mtb 44.7 Km 451 m 02:27:18 18.21 Km\h Torpado Ribot N
31/12/2016 Show to everybody 31-12verso_105_ezzelini 59.57 Km 874 m 03:22:06 17.68 Km\h Torpado Ribot N
26/12/2016 Show to everybody 26-12mtb_brenta 48.01 Km 233 m 02:27:10 19.57 Km\h Torpado Ribot N
24/12/2016 Show to everybody 24-12breganze_salcedo 35.39 Km 660 m 02:12:56 15.97 Km\h Torpado Ribot N
17/12/2016 Show to everybody 17-12mtb_nuovi_sentieri 26.9 Km 747 m 02:08:06 12.6 Km\h Torpado Ribot N
10/12/2016 Show to everybody 10-12camisin 50.19 Km 615 m 02:07:25 23.63 Km\h Giant Tcr Advanced
20/11/2016 Show to everybody 20-11giro_con_spaka 43.31 Km 1225 m 02:47:44 15.49 Km\h Torpado Ribot N
12/11/2016 Show to everybody 12-11covolo 44.99 Km 1073 m 02:56:43 15.28 Km\h Torpado Ribot N
29/10/2016 Show to everybody breganze_e_dintorni_mtb 42.48 Km 497 m 02:08:29 19.84 Km\h Torpado Ribot N
22/10/2016 Show to everybody mtb_fuori_giri 39.84 Km 977 m 02:16:16 17.54 Km\h Torpado Ribot N
16/10/2016 Show to everybody 16-10rubbio_mtb 33.35 Km 1072 m 02:26:29 13.66 Km\h Torpado Ribot N
08/10/2016 Show to everybody mtb_brenta_predipaldo 37.59 Km 571 m 02:16:54 16.47 Km\h Torpado Ribot N
01/10/2016 Show to everybody 20161001085546 54.27 Km 429 m 02:21:06 23.08 Km\h Giant Tcr Advanced
24/09/2016 Show to everybody Allenamento 24-09-2016 alle 07:50:07 66.56 Km 325 m 02:41:45 24.69 Km\h Giant Tcr Advanced
22/09/2016 Show to everybody 2016-09-22 18_52_58 24.32 Km 377 m 01:24:03 17.36 Km\h Torpado Ribot N
19/09/2016 Show to everybody prima_parte_edit 10.27 Km 114 m 00:27:25 22.48 Km\h Torpado Ribot N
19/09/2016 Show to everybody le_pile_ 17.38 Km 145 m 00:44:21 23.51 Km\h Torpado Ribot N
17/09/2016 Show to everybody Mortisa_Lusiana 45.72 Km 737 m 02:00:03 22.85 Km\h Giant Tcr Advanced
10/09/2016 Show to everybody Gps spento!! 27.27 Km 345 m 01:14:44 21.9 Km\h Torpado Ribot N
08/09/2016 Show to everybody Test etrex 25.56 Km 586 m 01:35:27 16.07 Km\h Torpado Ribot N
03/09/2016 Show to everybody Tretto 80.26 Km 1057 m 03:29:56 22.94 Km\h Giant Tcr Advanced
30/08/2016 Show to everybody Allenamento 30-08-2016 alle 16:37:33 31.21 Km 561 m 01:21:56 22.85 Km\h Giant Tcr Advanced
28/08/2016 Show to everybody Allenamento 28-08-2016 alle 07:58:17 34.13 Km 657 m 01:34:01 21.78 Km\h Giant Tcr Advanced
24/08/2016 Show to everybody Rifugio Papa 28.24 Km 1030 m 02:30:44 11.24 Km\h Torpado Ribot N
20/08/2016 Show to everybody Bivio Italia 39.72 Km 1284 m 03:27:24 11.49 Km\h Torpado Ribot N
17/08/2016 Show to everybody Allenamento 17-08-2016 alle 07:46:25 35.97 Km 681 m 01:44:13 20.71 Km\h Giant Tcr Advanced
14/08/2016 Show to everybody Allenamento 14-08-2016 alle 06:53:34 37.87 Km 954 m 02:30:51 15.06 Km\h Torpado Ribot N
11/08/2016 Show to everybody Allenamento 11-08-2016 alle 16:40:42 30.54 Km 285 m 01:09:01 26.55 Km\h Giant Tcr Advanced
09/08/2016 Show to everybody Allenamento 09-08-2016 alle 16:25:32 33.69 Km 681 m 01:31:01 22.21 Km\h Giant Tcr Advanced
06/08/2016 Show to everybody Allenamento 06-08-2016 alle 07:31:35 34.07 Km 673 m 01:31:23 22.37 Km\h Giant Tcr Advanced
04/08/2016 Show to everybody Allenamento 04-08-2016 alle 16:26:16 19.63 Km 386 m 01:13:07 16.11 Km\h Torpado Ribot N
30/07/2016 Show to everybody Fiorentini 146.16 Km 2393 m 06:24:10 22.83 Km\h Giant Tcr Advanced
28/07/2016 Show to everybody Allenamento 28-07-2016 alle 17:00:33 38.05 Km 128 m 01:24:53 26.9 Km\h Giant Tcr Advanced
26/07/2016 Show to everybody Allenamento 26-07-2016 alle 16:29:44 34.23 Km 432 m 01:25:25 24.05 Km\h Giant Tcr Advanced
23/07/2016 Show to everybody Allenamento 23-07-2016 alle 07:05:04 73.11 Km 1070 m 03:16:14 22.35 Km\h Giant Tcr Advanced
21/07/2016 Show to everybody Allenamento 21-07-2016 alle 17:00:01 38.52 Km 124 m 01:27:35 26.39 Km\h Giant Tcr Advanced
19/07/2016 Show to everybody Allenamento 19-07-2016 alle 16:39:00 35.21 Km 236 m 01:20:24 26.27 Km\h Giant Tcr Advanced
16/07/2016 Show to everybody Cima Campo 130.51 Km 1575 m 05:37:37 23.19 Km\h Giant Tcr Advanced
12/07/2016 Show to everybody Allenamento 12-07-2016 alle 17:41:19 29.97 Km 206 m 01:09:26 25.9 Km\h Giant Tcr Advanced
09/07/2016 Show to everybody Monfenera Grappa 102.44 Km 1929 m 05:13:19 19.62 Km\h Giant Tcr Advanced
07/07/2016 Show to everybody Allenamento 07-07-2016 alle 16:54:14 41.65 Km 146 m 01:33:09 26.83 Km\h Giant Tcr Advanced
05/07/2016 Show to everybody Allenamento 05-07-2016 alle 17:43:56 21.73 Km 172 m 00:48:36 26.83 Km\h Giant Tcr Advanced
02/07/2016 Show to everybody Allenamento 02-07-2016 alle 07:04:01 75.27 Km 1611 m 03:56:32 19.09 Km\h Giant Tcr Advanced
30/06/2016 Show to everybody Allenamento 30-06-2016 alle 17:06:26 33.94 Km 669 m 01:34:24 21.57 Km\h Giant Tcr Advanced
28/06/2016 Show to everybody Allenamento 28-06-2016 alle 16:34:44 30.59 Km 272 m 01:10:14 26.14 Km\h Giant Tcr Advanced
22/06/2016 Show to everybody Allenamento 22-06-2016 alle 07:30:51 46.3 Km 970 m 02:11:34 21.11 Km\h Giant Tcr Advanced
21/06/2016 Show to everybody Allenamento 21-06-2016 alle 14:08:14 43.37 Km 171 m 01:32:32 28.12 Km\h Giant Tcr Advanced
18/06/2016 Show to everybody Allenamento 18-06-2016 alle 07:02:33 118.21 Km 1668 m 04:53:16 24.18 Km\h Giant Tcr Advanced
16/06/2016 Show to everybody Allenamento 16-06-2016 alle 16:33:28 29.87 Km 288 m 01:06:44 26.86 Km\h Giant Tcr Advanced
12/06/2016 Show to everybody Allenamento 12-06-2016 alle 07:11:10 60.48 Km 400 m 02:16:08 26.66 Km\h Giant Tcr Advanced
07/06/2016 Show to everybody Allenamento 07-06-2016 alle 16:26:29 38.25 Km 488 m 01:35:10 24.12 Km\h Giant Tcr Advanced
04/06/2016 Show to everybody Che lavata 112.1 Km 695 m 04:07:56 27.13 Km\h Giant Tcr Advanced
02/06/2016 Show to everybody Allenamento 02-06-2016 alle 08:15:13 34.6 Km 731 m 01:35:45 21.68 Km\h Giant Tcr Advanced
28/05/2016 Show to everybody Rotzo 101.35 Km 1376 m 04:12:36 24.07 Km\h Giant Tcr Advanced
26/05/2016 Show to everybody Allenamento 26-05-2016 alle 16:21:45 43.73 Km 153 m 01:33:17 28.13 Km\h Giant Tcr Advanced
24/05/2016 Show to everybody Allenamento 24-05-2016 alle 16:46:50 34.19 Km 448 m 01:24:25 24.3 Km\h Giant Tcr Advanced
21/05/2016 Show to everybody Combai 108.04 Km 927 m 04:11:56 25.73 Km\h Giant Tcr Advanced
17/05/2016 Show to everybody Allenamento 17-05-2016 alle 16:23:58 35.22 Km 256 m 01:16:47 27.52 Km\h Giant Tcr Advanced
14/05/2016 Show to everybody Allenamento 14-05-2016 alle 07:36:01 74.47 Km 1242 m 03:24:57 21.8 Km\h Giant Tcr Advanced
10/05/2016 Show to everybody Allenamento 10-05-2016 alle 16:27:45 39.98 Km 554 m 01:41:10 23.71 Km\h Giant Tcr Advanced
07/05/2016 Show to everybody Zovo_Xon 105.33 Km 1234 m 04:23:14 24.01 Km\h Giant Tcr Advanced
05/05/2016 Show to everybody Allenamento 05-05-2016 alle 16:15:42 38.3 Km 530 m 01:30:30 25.39 Km\h Giant Tcr Advanced
03/05/2016 Show to everybody Allenamento 03-05-2016 alle 16:16:48 29.98 Km 247 m 01:11:45 25.07 Km\h Giant Tcr Advanced
30/04/2016 Show to everybody verso il montello 104.31 Km 875 m 04:11:21 24.9 Km\h Giant Tcr Advanced
28/04/2016 Show to everybody Allenamento 28-04-2016 alle 16:16:41 37.36 Km 84 m 01:25:24 26.25 Km\h Giant Tcr Advanced
27/04/2016 Show to everybody Allenamento 27-04-2016 alle 16:40:14 31.14 Km 322 m 01:16:59 24.27 Km\h Giant Tcr Advanced
25/04/2016 Show to everybody Allenamento 25-04-2016 alle 07:32:57 82.92 Km 695 m 03:19:04 24.99 Km\h Giant Tcr Advanced
21/04/2016 Show to everybody Fara_Cavecia 41.2 Km 518 m 01:40:57 24.49 Km\h Giant Tcr Advanced
19/04/2016 Show to everybody Allenamento 19-04-2016 alle 16:19:35 41.86 Km 508 m 01:40:43 24.94 Km\h Giant Tcr Advanced
16/04/2016 Show to everybody Valdobiadene 101.75 Km 846 m 04:05:13 24.9 Km\h Giant Tcr Advanced
14/04/2016 Show to everybody Allenamento 14-04-2016 alle 16:15:52 33.51 Km 303 m 01:19:46 25.2 Km\h Giant Tcr Advanced
12/04/2016 Show to everybody Allenamento 12-04-2016 alle 16:16:30 35.27 Km 346 m 01:22:30 25.65 Km\h Giant Tcr Advanced
10/04/2016 Show to everybody Allenamento 10-04-2016 alle 07:31:37 92.15 Km 744 m 03:42:09 24.89 Km\h Giant Tcr Advanced
06/04/2016 Show to everybody Allenamento 06-04-2016 alle 16:44:06 30 Km 186 m 01:07:49 26.54 Km\h Giant Tcr Advanced
05/04/2016 Show to everybody Allenamento 05-04-2016 alle 16:47:43 30.49 Km 279 m 01:11:20 25.64 Km\h Giant Tcr Advanced
02/04/2016 Show to everybody Allenamento 02-04-2016 alle 07:28:31 86.39 Km 483 m 03:25:28 25.23 Km\h Giant Tcr Advanced
30/03/2016 Show to everybody Allenamento 30-03-2016 alle 15:49:16 32.26 Km 64 m 01:11:03 27.24 Km\h Giant Tcr Advanced
29/03/2016 Show to everybody Allenamento 29-03-2016 alle 08:28:37 31.18 Km 329 m 01:15:01 24.94 Km\h Giant Tcr Advanced
26/03/2016 Show to everybody Allenamento 26-03-2016 alle 07:26:53 77.25 Km 832 m 03:13:47 23.92 Km\h Giant Tcr Advanced
19/03/2016 Show to everybody Castelli 75.38 Km 616 m 03:11:09 23.66 Km\h Giant Tcr Advanced
13/03/2016 Show to everybody Asolo-Crespano 65.77 Km 623 m 02:51:44 22.98 Km\h Giant Tcr Advanced
21/02/2016 Show to everybody Allenamento 21-02-2016 alle 07:47:57 47.34 Km 377 m 01:58:50 23.9 Km\h Giant Tcr Advanced
23/01/2016 Show to everybody Allenamento 23-01-2016 alle 08:32:48 61.64 Km 328 m 02:24:08 25.66 Km\h Giant Tcr Advanced
17/01/2016 Show to everybody Allenamento 17-01-2016 alle 08:33:08 48.65 Km 169 m 01:51:57 26.07 Km\h Giant Tcr Advanced
20/12/2015 Show to everybody Allenamento 20-12-2015 alle 08:58:04 56.01 Km 337 m 01:41:28 33.12 Km\h Giant Tcr Advanced
12/12/2015 Show to everybody Allenamento 12-12-2015 alle 12:03:18 45.97 Km 285 m 01:49:05 25.28 Km\h Giant Tcr Advanced
28/11/2015 Show to everybody Allenamento 28-11-2015 alle 08:39:14 60.97 Km 283 m 02:16:57 26.71 Km\h Giant Tcr Advanced
22/11/2015 Show to everybody Allenamento 22-11-2015 alle 08:40:53 49.83 Km 361 m 01:55:59 25.78 Km\h Giant Tcr Advanced
14/11/2015 Show to everybody Cornuda 77.2 Km 512 m 03:04:28 25.11 Km\h Giant Tcr Advanced
07/11/2015 Show to everybody Allenamento 07-11-2015 alle 09:21:42 61.04 Km 575 m 02:40:59 22.75 Km\h Giant Tcr Advanced
01/11/2015 Show to everybody Allenamento 01-11-2015 alle 09:24:13 57.78 Km 200 m 02:20:10 24.73 Km\h Giant Tcr Advanced
24/10/2015 Show to everybody Torricelle 68.75 Km 541 m 02:47:53 24.57 Km\h Giant Tcr Advanced
10/10/2015 Show to everybody Allenamento 10-10-2015 alle 07:59:57 69.64 Km 660 m 02:51:35 24.35 Km\h Giant Tcr Advanced
26/09/2015 Show to everybody Allenamento 26-09-2015 alle 07:54:10 63.74 Km 305 m 02:45:43 23.08 Km\h Giant Tcr Advanced
19/09/2015 Show to everybody Allenamento 19-09-2015 alle 08:10:38 57.86 Km 409 m 02:18:37 25.04 Km\h Giant Tcr Advanced
13/09/2015 Show to everybody Allenamento 13-09-2015 alle 07:51:11 58.42 Km 284 m 02:11:05 26.74 Km\h Giant Tcr Advanced
06/09/2015 Show to everybody Doppia foratura 58.42 Km 540 m 02:22:22 24.62 Km\h Visual
30/08/2015 Show to everybody Allenamento 30-08-2015 alle 07:46:22 69.93 Km 495 m 02:43:29 25.66 Km\h Giant Tcr Advanced
26/08/2015 Show to everybody Allenamento 26-08-2015 alle 16:44:54 28.29 Km 182 m 01:05:25 25.94 Km\h Giant Tcr Advanced
22/08/2015 Show to everybody Allenamento 22-08-2015 alle 08:16:03 57.18 Km 99 m 02:09:36 26.47 Km\h Giant Tcr Advanced
20/08/2015 Show to everybody Allenamento 20-08-2015 alle 08:10:54 51.72 Km 314 m 02:02:59 25.23 Km\h Giant Tcr Advanced
18/08/2015 Show to everybody Allenamento 18-08-2015 alle 13:40:44 46.45 Km 358 m 01:51:24 25.02 Km\h Giant Tcr Advanced
13/08/2015 Show to everybody Allenamento 13-08-2015 alle 06:27:23 38.53 Km 681 m 01:44:07 22.2 Km\h Giant Tcr Advanced
10/08/2015 Show to everybody Scarico-piana 64.34 Km 334 m 02:23:04 26.98 Km\h Giant Tcr Advanced
08/08/2015 Show to everybody Salcedo-Lusiana_Conco 49.88 Km 783 m 02:07:44 23.43 Km\h Giant Tcr Advanced
06/08/2015 Show to everybody Allenamento 06-08-2015 alle 15:28:40 38.56 Km 137 m 01:26:22 26.79 Km\h Giant Tcr Advanced
04/08/2015 Show to everybody Allenamento 04-08-2015 alle 15:41:06 30.5 Km 270 m 01:10:28 25.97 Km\h Giant Tcr Advanced
01/08/2015 Show to everybody Combai 106.74 Km 909 m 04:04:36 26.18 Km\h Giant Tcr Advanced
30/07/2015 Show to everybody 30-07valstagna 43.7 Km 147 m 01:30:28 28.99 Km\h Giant Tcr Advanced
28/07/2015 Show to everybody Allenamento 28-07-2015 alle 15:36:00 29.95 Km 207 m 01:07:00 26.82 Km\h Giant Tcr Advanced
25/07/2015 Show to everybody giretto mattutino 60.49 Km 939 m 02:39:46 22.72 Km\h Giant Tcr Advanced
18/07/2015 Show to everybody Rotzo 93.65 Km 1403 m 04:13:09 22.2 Km\h Giant Tcr Advanced
16/07/2015 Show to everybody Allenamento 16-07-2015 alle 15:36:37 31.43 Km 571 m 01:25:13 22.13 Km\h Giant Tcr Advanced
14/07/2015 Show to everybody Allenamento 14-07-2015 alle 15:41:46 44.15 Km 151 m 01:38:14 26.97 Km\h Giant Tcr Advanced
11/07/2015 Show to everybody CAmpogrosso 120.8 Km 2043 m 05:33:00 21.77 Km\h Giant Tcr Advanced
09/07/2015 Show to everybody Mortisa 36.8 Km 463 m 01:28:16 25.02 Km\h Giant Tcr Advanced
07/07/2015 Show to everybody Caldo 35.77 Km 140 m 01:19:31 26.99 Km\h Giant Tcr Advanced
04/07/2015 Show to everybody Grappa 77.28 Km 1654 m 04:05:48 18.87 Km\h Giant Tcr Advanced
01/07/2015 Show to everybody Allenamento 01-07-2015 alle 15:37:02 25.82 Km 457 m 01:09:22 22.33 Km\h Giant Tcr Advanced
30/06/2015 Show to everybody Valstagna 43.82 Km 147 m 01:40:10 26.25 Km\h Giant Tcr Advanced
25/06/2015 Show to everybody Corno 65.65 Km 1362 m 03:08:42 20.87 Km\h Giant Tcr Advanced
24/06/2015 Show to everybody rosina 30.89 Km 282 m 01:17:13 24.01 Km\h Giant Tcr Advanced
20/06/2015 Show to everybody Cima Campo 127.1 Km 1571 m 05:10:05 24.59 Km\h Giant Tcr Advanced
18/06/2015 Show to everybody Allenamento 18-06-2015 alle 15:58:13 31.7 Km 57 m 01:07:31 28.17 Km\h Giant Tcr Advanced
17/06/2015 Show to everybody Fara 29.05 Km 248 m 01:02:58 27.68 Km\h Giant Tcr Advanced
13/06/2015 Show to everybody Vezzena_1 85.51 Km 1567 m 03:44:53 22.81 Km\h Giant Tcr Advanced
13/06/2015 Show to everybody Vezzena_2 37.39 Km 154 m 01:09:58 32.07 Km\h Giant Tcr Advanced
11/06/2015 Show to everybody Fontanelle 33.82 Km 680 m 01:31:39 22.14 Km\h Giant Tcr Advanced
09/06/2015 Show to everybody SAlcedo 32.71 Km 399 m 01:19:45 24.61 Km\h Giant Tcr Advanced
06/06/2015 Show to everybody enego 108.42 Km 1372 m 04:34:34 23.69 Km\h Giant Tcr Advanced
04/06/2015 Show to everybody Valstagna 43.59 Km 152 m 01:35:39 27.34 Km\h Giant Tcr Advanced
01/06/2015 Show to everybody Allenamento 01-06-2015 alle 15:39:10 34.99 Km 60 m 01:19:05 26.55 Km\h Giant Tcr Advanced
30/05/2015 Show to everybody Rotzo 99.45 Km 1359 m 04:12:48 23.6 Km\h Giant Tcr Advanced
28/05/2015 Show to everybody Valrovina 28.68 Km 353 m 01:10:54 24.27 Km\h Giant Tcr Advanced
25/05/2015 Show to everybody Mortisa 36.83 Km 490 m 01:28:23 25 Km\h Giant Tcr Advanced
19/05/2015 Show to everybody Fara 30.64 Km 279 m 01:14:15 24.76 Km\h Giant Tcr Advanced
18/05/2015 Show to everybody Allenamento 18-05-2015 alle 15:36:58 38.6 Km 135 m 01:29:14 25.96 Km\h Giant Tcr Advanced
16/05/2015 Show to everybody Xomo 92.56 Km 1275 m 04:01:24 23 Km\h Giant Tcr Advanced
13/05/2015 Show to everybody SAlcedo 34.9 Km 470 m 01:26:03 24.34 Km\h Giant Tcr Advanced
12/05/2015 Show to everybody Allenamento 12-05-2015 alle 15:34:57 35.66 Km 68 m 01:19:22 26.96 Km\h Giant Tcr Advanced
09/05/2015 Show to everybody Combai-Cassanego 113.96 Km 1058 m 04:34:51 24.88 Km\h Giant Tcr Advanced
07/05/2015 Show to everybody Campolongo-Rosina 34.24 Km 278 m 01:20:43 25.45 Km\h Giant Tcr Advanced
05/05/2015 Show to everybody Fara 30.67 Km 308 m 01:14:17 24.77 Km\h Giant Tcr Advanced
02/05/2015 Show to everybody Cassanego - Mostacin 87.08 Km 721 m 03:32:16 24.61 Km\h Giant Tcr Advanced
29/04/2015 Show to everybody Allenamento 29-04-2015 alle 15:38:13 38.06 Km 118 m 01:30:37 25.2 Km\h Giant Tcr Advanced
25/04/2015 Show to everybody Montello 109.54 Km 911 m 04:19:21 25.34 Km\h Giant Tcr Advanced
23/04/2015 Show to everybody Allenamento 23-04-2015 alle 16:07:45 31.93 Km 103 m 01:10:24 27.21 Km\h Giant Tcr Advanced
21/04/2015 Show to everybody Valstagna 43.83 Km 163 m 01:36:23 27.29 Km\h Giant Tcr Advanced
19/04/2015 Show to everybody Torreselle CA Vecia 82.99 Km 814 m 03:31:46 23.51 Km\h Giant Tcr Advanced
16/04/2015 Show to everybody Agilità 47.54 Km 72 m 01:43:07 27.66 Km\h Giant Tcr Advanced
14/04/2015 Show to everybody Fara 31.21 Km 308 m 01:18:07 23.97 Km\h Giant Tcr Advanced
11/04/2015 Show to everybody Valdobiadene 106.02 Km 783 m 04:10:41 25.38 Km\h Giant Tcr Advanced
08/04/2015 Show to everybody Fara 30.57 Km 287 m 01:15:13 24.39 Km\h Giant Tcr Advanced
07/04/2015 Show to everybody Pianura 31.9 Km 73 m 01:11:19 26.84 Km\h Giant Tcr Advanced
04/04/2015 Show to everybody Monte di Malo 77.02 Km 551 m 03:03:30 25.18 Km\h Giant Tcr Advanced
01/04/2015 Show to everybody Camisin 44.24 Km 329 m 01:44:20 25.44 Km\h Giant Tcr Advanced
30/03/2015 Show to everybody Allenamento 30-03-2015 alle 15:14:34 30.72 Km 247 m 01:14:32 24.73 Km\h Giant Tcr Advanced
28/03/2015 Show to everybody Castelli pianura 84.88 Km 397 m 03:19:10 25.57 Km\h Giant Tcr Advanced
21/03/2015 Show to everybody Asolo 66.83 Km 328 m 02:46:03 24.15 Km\h Giant Tcr Advanced
14/03/2015 Show to everybody Crespano-Monfumo 68.82 Km 571 m 02:57:35 23.25 Km\h Giant Tcr Advanced
07/03/2015 Show to everybody Camisin Piovene 62.37 Km 420 m 02:34:34 24.21 Km\h Giant Tcr Advanced
28/02/2015 Show to everybody Asolo 63.64 Km 318 m 02:33:51 24.82 Km\h Giant Tcr Advanced
24/01/2015 Show to everybody Allenamento 24-01-2015 alle 09:21:05 44.09 Km 339 m 01:50:02 24.04 Km\h Giant Tcr Advanced
05/01/2015 Show to everybody Asolo-Influenza!! 60.32 Km 322 m 02:31:57 23.82 Km\h Giant Tcr Advanced
03/01/2015 Show to everybody primo giro-camisin 50.81 Km 424 m 02:06:26 24.11 Km\h Giant Tcr Advanced
21/12/2014 Show to everybody Crespano a ruota 59.32 Km 378 m 02:17:57 25.8 Km\h Giant Tcr Advanced
13/12/2014 Show to everybody Allenamento 13-12-2014 alle 13:02:55 42.85 Km 133 m 01:40:18 25.63 Km\h Giant Tcr Advanced
29/11/2014 Show to everybody Allenamento 29-11-2014 alle 12:59:58 58.62 Km 297 m 02:15:12 26.01 Km\h Giant Tcr Advanced
22/11/2014 Show to everybody Asolo-Crespano 56.97 Km 414 m 02:22:37 23.97 Km\h Giant Tcr Advanced
01/11/2014 Show to everybody Allenamento 01-11-2014 alle 09:31:02 54.05 Km 574 m 02:16:22 23.78 Km\h Giant Tcr Advanced
25/10/2014 Show to everybody Allenamento 25-10-2014 alle 11:52:22 42.51 Km 136 m 01:36:29 26.43 Km\h Giant Tcr Advanced
18/10/2014 Show to everybody Dopo tanto 51.58 Km 384 m 02:04:34 24.84 Km\h Giant Tcr Advanced
27/09/2014 Show to everybody Salita degli Ulivi 37.99 Km 431 m 01:39:30 22.91 Km\h Giant Tcr Advanced
25/09/2014 Show to everybody Allenamento 25-09-2014 alle 15:41:14 31.64 Km 64 m 01:08:40 27.65 Km\h Giant Tcr Advanced
21/09/2014 Show to everybody Salcedo Lusiana 34.04 Km 665 m 01:31:54 22.22 Km\h Giant Tcr Advanced
18/09/2014 Show to everybody Allenamento 18-09-2014 alle 15:36:23 29.96 Km 209 m 01:10:26 25.52 Km\h Giant Tcr Advanced
13/09/2014 Show to everybody Valdagno Castelvecchio Zovo 98.4 Km 1341 m 04:15:27 23.11 Km\h Giant Tcr Advanced
09/09/2014 Show to everybody Salcedo 34.49 Km 451 m 01:26:12 24.01 Km\h Giant Tcr Advanced
06/09/2014 Show to everybody Passo Xon Recoaro Mille 116.72 Km 1411 m 04:52:21 23.96 Km\h Giant Tcr Advanced
02/09/2014 Show to everybody Fara Lugo 30.63 Km 282 m 01:11:14 25.8 Km\h Giant Tcr Advanced
30/08/2014 Show to everybody Malo torricelle 86.38 Km 764 m 03:34:06 24.21 Km\h Giant Tcr Advanced
28/08/2014 Show to everybody Allenamento 28-08-2014 alle 15:40:53 31.77 Km 72 m 01:06:24 28.71 Km\h Giant Tcr Advanced
27/08/2014 Show to everybody Allenamento 27-08-2014 alle 15:43:02 30.03 Km 210 m 01:08:22 26.36 Km\h Giant Tcr Advanced
24/08/2014 Show to everybody Malo-pianura 60.7 Km 274 m 02:12:44 27.44 Km\h Giant Tcr Advanced
21/08/2014 Show to everybody Allenamento 21-08-2014 alle 16:03:52 31.93 Km 59 m 01:10:46 27.07 Km\h Giant Tcr Advanced
18/08/2014 Show to everybody Mortisa-Lusiana 45.79 Km 748 m 02:02:18 22.46 Km\h Giant Tcr Advanced
13/08/2014 Show to everybody Camisin 45.7 Km 304 m 01:52:29 24.38 Km\h Giant Tcr Advanced
04/08/2014 Show to everybody SAn Luca Rosina 27.95 Km 510 m 01:13:22 22.85 Km\h Giant Tcr Advanced
02/08/2014 Show to everybody Rotzo 91.3 Km 1349 m 03:59:56 22.83 Km\h Giant Tcr Advanced
31/07/2014 Show to everybody Valstagna 43.48 Km 163 m 01:34:16 27.67 Km\h Giant Tcr Advanced
29/07/2014 Show to everybody Allenamento 29-07-2014 alle 15:14:11 28.67 Km 448 m 01:11:04 24.21 Km\h Giant Tcr Advanced
23/07/2014 Show to everybody Camisin 45.69 Km 346 m 01:42:30 26.75 Km\h Giant Tcr Advanced
22/07/2014 Show to everybody Fontanelle 34.1 Km 671 m 01:33:16 21.94 Km\h Giant Tcr Advanced
19/07/2014 Show to everybody Arina 132.05 Km 1431 m 05:40:36 23.26 Km\h Giant Tcr Advanced
17/07/2014 Show to everybody Allenamento 17-07-2014 alle 15:04:43 41.95 Km 146 m 01:35:19 26.41 Km\h Giant Tcr Advanced
15/07/2014 Show to everybody Mortisa 38.3 Km 466 m 01:35:16 24.12 Km\h Giant Tcr Advanced
05/07/2014 Show to everybody Barricata 122.44 Km 1655 m 05:15:31 23.28 Km\h Giant Tcr Advanced
03/07/2014 Show to everybody Allenamento 03-07-2014 alle 15:32:26 29.88 Km 213 m 01:10:02 25.6 Km\h Giant Tcr Advanced
01/07/2014 Show to everybody Veneziane-SanLuca-Fontanelle 38.72 Km 695 m 01:44:07 22.32 Km\h Giant Tcr Advanced
28/06/2014 Show to everybody Feltre pioggerelina e gambe finite 120.06 Km 577 m 04:09:24 28.88 Km\h Giant Tcr Advanced
26/06/2014 Show to everybody Fontanelle 33.89 Km 694 m 01:32:42 21.94 Km\h Giant Tcr Advanced
24/06/2014 Show to everybody Mortisa 36.84 Km 476 m 01:29:41 24.65 Km\h Giant Tcr Advanced
21/06/2014 Show to everybody Vezzena 126.65 Km 1917 m 05:11:25 24.4 Km\h Giant Tcr Advanced
17/06/2014 Show to everybody Allenamento 17-06-2014 alle 15:34:51 26.35 Km 449 m 01:05:35 24.11 Km\h Giant Tcr Advanced
14/06/2014 Show to everybody Enego-temporale-casa 109.42 Km 1143 m 04:18:21 25.41 Km\h Giant Tcr Advanced
12/06/2014 Show to everybody Allenamento 12-06-2014 alle 15:45:55 29.83 Km 206 m 01:09:44 25.67 Km\h Giant Tcr Advanced
10/06/2014 Show to everybody Allenamento 10-06-2014 alle 15:49:45 35.48 Km 60 m 01:22:01 25.95 Km\h Giant Tcr Advanced
07/06/2014 Show to everybody Monte Cesen 114.99 Km 1438 m 04:55:22 23.36 Km\h Giant Tcr Advanced
05/06/2014 Show to everybody Salcedo 34.31 Km 442 m 01:24:31 24.36 Km\h Giant Tcr Advanced
31/05/2014 Show to everybody enego 98.23 Km 828 m 03:53:59 25.19 Km\h Giant Tcr Advanced
24/05/2014 Show to everybody Rotzo(senza gps!!!!) 28.89 Km 331 m 02:07:49 13.56 Km\h Giant Tcr Advanced
22/05/2014 Show to everybody SanLuca-Rosina 28.15 Km 511 m 01:15:34 22.35 Km\h Giant Tcr Advanced
21/05/2014 Show to everybody pianura 31.94 Km 66 m 01:08:19 28.05 Km\h Giant Tcr Advanced
17/05/2014 Show to everybody Combai 106.75 Km 896 m 04:03:42 26.28 Km\h Giant Tcr Advanced
14/05/2014 Show to everybody Vento!! 28.37 Km 380 m 01:10:29 24.15 Km\h Giant Tcr Advanced
10/05/2014 Show to everybody Santa Caterina-Cerbaro 89.05 Km 1040 m 03:43:21 23.92 Km\h Giant Tcr Advanced
06/05/2014 Show to everybody Allenamento 06-05-2014 alle 15:39:45 29.93 Km 227 m 01:12:52 24.65 Km\h Giant Tcr Advanced
03/05/2014 Show to everybody Cassanego-pianura 83.37 Km 695 m 03:20:39 24.93 Km\h Giant Tcr Advanced
01/05/2014 Show to everybody Monte di Malo-Cavecia 78.19 Km 686 m 03:07:09 25.07 Km\h Giant Tcr Advanced
29/04/2014 Show to everybody Allenamento 29-04-2014 alle 15:34:20 30 Km 215 m 01:08:35 26.25 Km\h Giant Tcr Advanced
25/04/2014 Show to everybody montello 116.53 Km 681 m 04:16:22 27.27 Km\h Giant Tcr Advanced
17/04/2014 Show to everybody Valrovina 30.91 Km 357 m 01:19:09 23.43 Km\h Giant Tcr Advanced
15/04/2014 Show to everybody Allenamento 15-04-2014 alle 16:09:03 28.43 Km 181 m 01:06:46 25.55 Km\h Giant Tcr Advanced
12/04/2014 Show to everybody Rocca 85.88 Km 578 m 03:22:15 25.48 Km\h Giant Tcr Advanced
10/04/2014 Show to everybody Sera10-04 30.54 Km 286 m 01:13:47 24.84 Km\h Giant Tcr Advanced
06/04/2014 Show to everybody Camisin-Cavecià 46.23 Km 538 m 01:55:44 23.97 Km\h Giant Tcr Advanced
03/04/2014 Show to everybody Allen-serale 28.53 Km 191 m 01:07:15 25.46 Km\h Giant Tcr Advanced
31/03/2014 Show to everybody Camisin 44.16 Km 330 m 01:49:07 24.28 Km\h Giant Tcr Advanced
29/03/2014 Show to everybody Cornuda 86.32 Km 536 m 03:32:56 24.32 Km\h Giant Tcr Advanced
15/03/2014 Show to everybody isola-creazzo 88.13 Km 523 m 03:33:54 24.72 Km\h Giant Tcr Advanced
08/03/2014 Show to everybody Primo giro 2014 75.29 Km 623 m 03:11:35 23.58 Km\h Giant Tcr Advanced
28/12/2013 Show to everybody Ultimo giro 2013 47.19 Km 299 m 02:01:37 23.28 Km\h Giant Tcr Advanced
27/12/2013 Show to everybody sgambata 36.98 Km 116 m 01:25:46 25.87 Km\h Visual
07/12/2013 Show to everybody Ca Vecia(digerire!!) 41.95 Km 436 m 01:50:17 22.82 Km\h Giant Tcr Advanced
30/11/2013 Show to everybody Prova Giant 45.78 Km 386 m 01:52:17 24.47 Km\h Giant Tcr Advanced
16/11/2013 Show to everybody Visual-addio? 37.27 Km 39 m 01:29:19 25.04 Km\h Visual
01/11/2013 Show to everybody 1 novembre 51.8 Km 603 m 02:21:22 21.98 Km\h Visual
26/10/2013 Show to everybody Nebbia 54.57 Km 646 m 02:42:49 20.11 Km\h Visual
19/10/2013 Show to everybody Costo vecio 43.71 Km 745 m 02:11:59 19.87 Km\h Visual
13/10/2013 Show to everybody Crespano e dintorni 56.78 Km 436 m 02:32:07 22.39 Km\h Visual
21/09/2013 Show to everybody Salcedo Lusiana 34.11 Km 657 m 01:42:09 20.03 Km\h Visual
14/09/2013 Show to everybody Meso Grappa!!! 66.33 Km 1250 m 03:55:47 16.88 Km\h Visual
05/09/2013 Show to everybody Allenamento 05-09-2013 alle 16:04:48 24.1 Km 361 m 01:04:28 22.43 Km\h Visual
03/09/2013 Show to everybody Allenamento 03-09-2013 alle 15:57:57 28.59 Km 174 m 01:07:38 25.36 Km\h Visual
31/08/2013 Show to everybody Allenamento 31-08-2013 alle 06:19:51 70.56 Km 489 m 03:05:22 22.84 Km\h Visual
24/08/2013 Show to everybody Allenamento 24-08-2013 alle 06:35:20 63.17 Km 448 m 02:38:16 23.95 Km\h Visual
21/08/2013 Show to everybody Allenamento 21-08-2013 alle 06:15:59 51.31 Km 418 m 02:10:53 23.52 Km\h Visual
18/08/2013 Show to everybody Allenamento 18-08-2013 alle 06:30:47 43.99 Km 317 m 01:50:33 23.87 Km\h Visual
16/08/2013 Show to everybody rientro 27.39 Km 12 m 01:09:54 23.51 Km\h Visual
13/06/2013 Show to everybody ultima sera-bomba!!! 32.6 Km 451 m 03:38:28 8.95 Km\h Visual
12/06/2013 Show to everybody sera 30.01 Km 199 m 01:08:42 26.21 Km\h Visual
08/06/2013 Show to everybody Combai Millies 123.35 Km 1401 m 05:11:23 23.77 Km\h Visual
01/06/2013 Show to everybody Come sempre Acqua!! 101.64 Km 678 m 03:50:48 26.42 Km\h Visual
29/05/2013 Show to everybody 29-maggio 32.68 Km 425 m 01:16:49 25.53 Km\h Visual
26/05/2013 Show to everybody Sole e FRESCO 76.27 Km 614 m 03:00:21 25.37 Km\h Visual
21/05/2013 Show to everybody 21 maggio 35.07 Km 31 m 01:18:29 26.81 Km\h Visual
18/05/2013 Show to everybody Pomeriggio Collinare! 68.64 Km 1103 m 03:04:19 22.34 Km\h Visual
14/05/2013 Show to everybody Mortisa 36.8 Km 485 m 01:31:48 24.05 Km\h Visual
12/05/2013 Show to everybody Domenica giretto collinare 43.86 Km 885 m 02:03:54 21.24 Km\h Visual
09/05/2013 Show to everybody sera 33.37 Km 132 m 01:11:57 27.83 Km\h Visual
04/05/2013 Show to everybody Camisin San Ulderico CaVecia 81.49 Km 1187 m 03:49:48 21.28 Km\h Visual
01/05/2013 Show to everybody Camisin-Cà Vecia 46.16 Km 535 m 01:50:54 24.97 Km\h Visual
27/04/2013 Show to everybody Mostacin 75.32 Km 646 m 03:08:23 23.99 Km\h Visual
25/04/2013 Show to everybody Col del Gallo-Rocca 95.97 Km 917 m 04:10:09 23.02 Km\h Visual
23/04/2013 Show to everybody sera-blocco gps 14.26 Km 134 m 00:34:49 24.57 Km\h Visual
18/04/2013 Show to everybody sera 31.92 Km 32 m 01:12:11 26.53 Km\h Visual
13/04/2013 Show to everybody arsiero 13-04 81.11 Km 596 m 03:06:07 26.15 Km\h Visual
06/04/2013 Show to everybody sabato06-04-part1 11.89 Km 106 m 00:28:09 25.35 Km\h Visual
06/04/2013 Show to everybody sabato06-04-part2 21.04 Km 0 m 01:01:19 20.59 Km\h Visual
30/03/2013 Show to everybody Sabato 30-03 Piove!! 33.52 Km 358 m 01:24:27 23.81 Km\h Visual
23/03/2013 Show to everybody Crespano 80.89 Km 758 m 03:21:59 24.03 Km\h Visual
16/03/2013 Show to everybody Vicenza-militare 82.36 Km 260 m 03:08:56 26.15 Km\h Visual
10/03/2013 Show to everybody Camisin-CaVecia 25.77 Km 298 m 01:04:19 24.04 Km\h Visual
02/03/2013 Show to everybody Borso-crespano 58.23 Km 431 m 02:28:13 23.57 Km\h Visual
16/02/2013 Show to everybody Camisin 51.2 Km 408 m 02:07:50 24.03 Km\h Visual

Show previous years trainings
This user's bikes.
Visual 39 1973.07 Km 19465 m 86:45:03 23.3 Km/h
Giant Tcr Advanced 313 17781.3 Km 186577 m 732:28:29 24.54 Km/h
Torpado Ribot N 57 2430.95 Km 43173 m 144:04:05 17.15 Km/h

399 points
Kilometers
0
Vertical gain
0
Rank:41

Watch ranking »

 

Bike name

Delete this bike?

Now you follow this users and you can compare your trainings

If you stop following this users you will not be able to compare your trainings with his


bdc-forum.it | 2012-2019 Training Camp v.1.0.15